Time;durP1;ratioP1;P1;durP2;ratioP2;P2;SDS_P1;SDS_P2;PMS_P1;PMS_P2;Temp;Humidity;BMP_temperature;BMP_pressure;BME280_temperature;BME280_humidity;BME280_pressure;Samples;Min_cycle;Max_cycle;Signal;HPM_P1;HPM_P2
2022/09/10 00:00:55;;;;;;;2.47;0.50;;;22.10;80.10;;;;;;6341988;22;20038;-78
2022/09/10 00:03:21;;;;;;;;;;;22.10;80.40;;;;;;6370683;22;20090;-80
2022/09/10 00:05:47;;;;;;;0.30;0.30;;;22.20;81.50;;;;;;6369885;22;19898;-79
2022/09/10 00:08:13;;;;;;;2.72;0.20;;;22.20;80.70;;;;;;6369661;22;20022;-78
2022/09/10 00:10:44;;;;;;;2.40;0.50;;;22.30;80.80;;;;;;6369375;22;19998;-78
2022/09/10 00:13:11;;;;;;;0.93;0.40;;;22.40;81.20;;;;;;6370421;22;20081;-78
2022/09/10 00:15:42;;;;;;;1.98;0.32;;;22.50;80.90;;;;;;6369953;22;20069;-78
2022/09/10 00:18:09;;;;;;;1.65;0.50;;;22.60;80.80;;;;;;6370302;22;20097;-80
2022/09/10 00:20:41;;;;;;;1.85;0.28;;;22.70;81.40;;;;;;6368470;22;20005;-81
2022/09/10 00:23:07;;;;;;;0.47;0.47;;;22.70;81.10;;;;;;6369700;22;19994;-79
2022/09/10 00:25:33;;;;;;;1.27;0.40;;;22.70;81.30;;;;;;6369493;22;20013;-80
2022/09/10 00:27:59;;;;;;;0.93;0.20;;;22.70;81.50;;;;;;6370316;22;20065;-80
2022/09/10 00:30:26;;;;;;;1.80;0.60;;;22.70;81.10;;;;;;6369600;22;20002;-80
2022/09/10 00:32:53;;;;;;;0.20;0.20;;;22.50;80.20;;;;;;6369706;22;20003;-80
2022/09/10 00:35:19;;;;;;;0.63;0.20;;;22.50;80.20;;;;;;6370630;22;20005;-80
2022/09/10 00:37:45;;;;;;;1.63;0.30;;;22.40;80.00;;;;;;6369298;22;19998;-80
2022/09/10 00:40:12;;;;;;;0.65;0.20;;;22.40;80.10;;;;;;6370231;22;20010;-80
2022/09/10 00:42:42;;;;;;;0.35;0.30;;;22.40;80.20;;;;;;6370304;22;19994;-80
2022/09/10 00:45:20;;;;;;;0.52;0.22;;;22.50;80.00;;;;;;6343036;22;20010;-80
2022/09/10 00:47:46;;;;;;;0.98;0.30;;;22.50;80.10;;;;;;6370184;22;19998;-81
2022/09/10 00:50:17;;;;;;;1.73;0.50;;;22.50;80.20;;;;;;6369929;22;20431;-81
2022/09/10 00:52:46;;;;;;;0.85;0.43;;;22.60;80.20;;;;;;6341882;22;20325;-80
2022/09/10 00:55:12;;;;;;;1.05;0.40;;;22.70;79.90;;;;;;6369590;22;20002;-80
2022/09/10 00:57:40;;;;;;;1.30;0.40;;;22.70;79.70;;;;;;6370162;22;20017;-82
2022/09/10 01:00:13;;;;;;;0.68;0.30;;;22.70;79.50;;;;;;6370646;22;20047;-80
2022/09/10 01:02:40;;;;;;;0.95;0.20;;;22.70;79.60;;;;;;6341701;22;20087;-84
2022/09/10 01:05:07;;;;;;;0.65;0.40;;;22.70;79.70;;;;;;6342070;22;20008;-80
2022/09/10 01:07:35;;;;;;;0.70;0.50;;;22.70;79.80;;;;;;6370145;22;19998;-84
2022/09/10 01:10:28;;;;;;;0.20;0.20;;;22.70;79.90;;;;;;6343042;22;20090;-84
2022/09/10 01:13:21;;;;;;;0.30;0.20;;;22.70;79.70;;;;;;6369599;22;20029;-84
2022/09/10 01:15:56;;;;;;;0.30;0.20;;;22.70;79.80;;;;;;6370245;22;20024;-85
2022/09/10 01:19:00;;;;;;;0.30;0.20;;;22.70;80.00;;;;;;6369820;22;19998;-84
2022/09/10 01:21:34;;;;;;;0.85;0.35;;;22.70;80.00;;;;;;6365945;22;20013;-84
2022/09/10 01:24:15;;;;;;;3.35;0.43;;;22.60;80.00;;;;;;6370627;22;19998;-83
2022/09/10 01:27:02;;;;;;;0.20;0.20;;;22.60;80.00;;;;;;6341730;22;20004;-84
2022/09/10 01:29:46;;;;;;;0.45;0.30;;;22.60;79.80;;;;;;6369935;22;19998;-78
2022/09/10 01:32:16;;;;;;;0.25;0.25;;;22.60;79.80;;;;;;6369857;22;20033;-78
2022/09/10 01:34:42;;;;;;;3.05;0.32;;;22.40;79.80;;;;;;6368894;22;20005;-78
2022/09/10 01:37:18;;;;;;;1.20;0.32;;;22.40;79.80;;;;;;6369903;22;20002;-78
2022/09/10 01:39:46;;;;;;;0.88;0.47;;;22.30;80.00;;;;;;6369198;22;20014;-79
2022/09/10 01:42:11;;;;;;;0.50;0.40;;;22.40;79.50;;;;;;6369125;22;19999;-78
2022/09/10 01:44:47;;;;;;;0.75;0.40;;;22.40;79.70;;;;;;6369606;22;20047;-79
2022/09/10 01:47:37;;;;;;;1.17;0.45;;;22.40;79.80;;;;;;6368573;22;20070;-79
2022/09/10 01:50:18;;;;;;;;;;;22.50;79.90;;;;;;6370085;22;20009;-80
2022/09/10 01:52:52;;;;;;;0.60;0.40;;;22.50;79.60;;;;;;6368943;22;19898;-79
2022/09/10 01:55:41;;;;;;;0.95;0.38;;;22.60;78.90;;;;;;6369693;22;20474;-79
2022/09/10 01:58:18;;;;;;;0.75;0.40;;;22.60;79.10;;;;;;6369878;22;20006;-83
2022/09/10 02:00:58;;;;;;;0.52;0.30;;;22.50;78.90;;;;;;6369215;22;19999;-83
2022/09/10 02:03:25;;;;;;;;;;;22.50;78.50;;;;;;6370195;22;20010;-83
2022/09/10 02:05:53;;;;;;;0.30;0.30;;;22.50;77.90;;;;;;6369263;22;19898;-83
2022/09/10 02:08:25;;;;;;;1.00;0.20;;;22.50;78.30;;;;;;6368980;22;19994;-83
2022/09/10 02:10:53;;;;;;;1.17;0.40;;;22.50;78.10;;;;;;6369607;22;19990;-84
2022/09/10 02:13:21;;;;;;;1.30;0.30;;;22.50;78.00;;;;;;6369152;22;20055;-84
2022/09/10 02:15:48;;;;;;;0.32;0.30;;;22.60;78.30;;;;;;6369184;22;20007;-83
2022/09/10 02:18:14;;;;;;;0.82;0.22;;;22.60;78.00;;;;;;6368367;22;20002;-83
2022/09/10 02:20:40;;;;;;;0.70;0.40;;;22.60;78.00;;;;;;6369520;22;20003;-83
2022/09/10 02:23:09;;;;;;;1.20;0.20;;;22.50;76.70;;;;;;6370212;22;20006;-83
2022/09/10 02:25:36;;;;;;;1.30;0.38;;;22.20;77.70;;;;;;6368852;22;20322;-82
2022/09/10 02:28:03;;;;;;;0.82;0.40;;;22.20;78.20;;;;;;6369002;22;20003;-82
2022/09/10 02:30:29;;;;;;;0.65;0.47;;;22.20;79.60;;;;;;6368741;22;20026;-82
2022/09/10 02:32:55;;;;;;;0.35;0.30;;;22.10;79.40;;;;;;6369428;22;20363;-82
2022/09/10 02:35:21;;;;;;;0.30;0.30;;;22.10;79.30;;;;;;6369466;22;19998;-82
2022/09/10 02:37:48;;;;;;;0.55;0.20;;;22.10;79.60;;;;;;6369585;22;20047;-78
2022/09/10 02:40:14;;;;;;;0.20;0.20;;;22.10;79.60;;;;;;6369411;22;20079;-79
2022/09/10 02:42:43;;;;;;;0.60;0.40;;;22.20;79.50;;;;;;6341908;22;20417;-79
2022/09/10 02:45:09;;;;;;;1.35;0.35;;;22.20;79.40;;;;;;6369385;22;19998;-80
2022/09/10 02:47:34;;;;;;;0.38;0.28;;;22.30;79.50;;;;;;6370892;22;20005;-79
2022/09/10 02:50:01;;;;;;;0.28;0.20;;;22.40;79.50;;;;;;6371796;22;20005;-78
2022/09/10 02:52:28;;;;;;;0.63;0.35;;;22.40;79.10;;;;;;6370684;22;20008;-79
2022/09/10 02:54:53;;;;;;;0.55;0.28;;;22.50;78.80;;;;;;6371085;22;19998;-79
2022/09/10 02:57:19;;;;;;;1.00;0.40;;;22.50;78.60;;;;;;6370788;22;20010;-80
2022/09/10 02:59:45;;;;;;;4.88;0.60;;;22.50;78.30;;;;;;6371093;22;19994;-78
2022/09/10 03:02:11;;;;;;;1.25;0.45;;;22.50;77.10;;;;;;6370584;22;20044;-77
2022/09/10 03:04:37;;;;;;;0.77;0.40;;;22.50;78.00;;;;;;6371570;22;19994;-77
2022/09/10 03:07:03;;;;;;;1.85;0.50;;;22.30;79.80;;;;;;6371255;22;19999;-77
2022/09/10 03:09:28;;;;;;;0.93;0.40;;;22.20;80.40;;;;;;6371830;22;19994;-77
2022/09/10 03:11:54;;;;;;;1.23;0.40;;;22.20;80.10;;;;;;6342583;22;20574;-77
2022/09/10 03:14:22;;;;;;;1.20;0.57;;;22.30;80.60;;;;;;6371281;22;20083;-77
2022/09/10 03:16:48;;;;;;;0.77;0.60;;;22.30;80.90;;;;;;6370982;22;20005;-78
2022/09/10 03:19:15;;;;;;;1.15;0.70;;;22.40;81.00;;;;;;6371662;22;20009;-78
2022/09/10 03:21:41;;;;;;;2.17;0.63;;;22.30;81.20;;;;;;6370750;22;19999;-78
2022/09/10 03:24:09;;;;;;;1.17;0.47;;;22.20;81.70;;;;;;6371445;22;20506;-78
2022/09/10 03:26:35;;;;;;;0.30;0.30;;;22.10;82.10;;;;;;6342428;22;20360;-78
2022/09/10 03:29:01;;;;;;;4.28;0.68;;;22.10;81.90;;;;;;6370696;22;20007;-78
2022/09/10 03:31:26;;;;;;;3.17;0.70;;;22.10;83.10;;;;;;6370801;22;20070;-78
2022/09/10 03:33:52;;;;;;;2.63;0.88;;;21.90;83.40;;;;;;6370317;22;20006;-77
2022/09/10 03:36:18;;;;;;;2.25;0.90;;;21.70;84.50;;;;;;6370830;22;20077;-78
2022/09/10 03:38:44;;;;;;;3.33;0.60;;;21.70;84.70;;;;;;6370730;22;20056;-77
2022/09/10 03:41:10;;;;;;;0.73;0.47;;;21.80;83.90;;;;;;6370545;22;19999;-77
2022/09/10 03:43:36;;;;;;;1.65;0.77;;;21.70;84.50;;;;;;6370924;22;20003;-78
2022/09/10 03:46:02;;;;;;;1.50;0.70;;;21.80;85.00;;;;;;6370845;22;20355;-78
2022/09/10 03:48:28;;;;;;;3.90;0.60;;;21.80;84.10;;;;;;6371283;22;20006;-78
2022/09/10 03:50:55;;;;;;;0.73;0.45;;;21.90;84.20;;;;;;6370927;22;20074;-78
2022/09/10 03:53:21;;;;;;;1.23;0.43;;;22.00;84.00;;;;;;6371239;22;20006;-78
2022/09/10 03:55:49;;;;;;;0.50;0.50;;;22.10;83.80;;;;;;6370820;22;20482;-78
2022/09/10 03:58:16;;;;;;;0.80;0.60;;;22.20;83.60;;;;;;6370354;22;20006;-80
2022/09/10 04:00:42;;;;;;;1.20;0.52;;;22.20;83.30;;;;;;6370575;22;19999;-79
2022/09/10 04:03:09;;;;;;;1.15;0.60;;;22.30;83.00;;;;;;6371055;22;20021;-79
2022/09/10 04:05:39;;;;;;;0.70;0.68;;;22.30;82.70;;;;;;6371425;22;19995;-79
2022/09/10 04:08:06;;;;;;;0.73;0.57;;;22.20;82.80;;;;;;6370818;22;19994;-79
2022/09/10 04:10:32;;;;;;;1.10;0.43;;;22.10;83.10;;;;;;6371121;22;20313;-78
2022/09/10 04:12:58;;;;;;;0.98;0.50;;;22.00;83.00;;;;;;6370091;22;20006;-78
2022/09/10 04:15:24;;;;;;;1.95;0.90;;;22.00;83.60;;;;;;6371274;22;20075;-79
2022/09/10 04:17:51;;;;;;;2.38;0.50;;;22.00;84.10;;;;;;6370781;22;20047;-79
2022/09/10 04:20:21;;;;;;;2.13;0.70;;;22.00;84.10;;;;;;6370586;22;20002;-78
2022/09/10 04:22:47;;;;;;;2.05;0.98;;;21.90;83.90;;;;;;6342395;22;20089;-78
2022/09/10 04:25:14;;;;;;;3.55;0.95;;;22.00;84.00;;;;;;6370983;22;20428;-78
2022/09/10 04:27:41;;;;;;;3.25;0.55;;;22.10;84.10;;;;;;6369336;22;20079;-78
2022/09/10 04:30:08;;;;;;;1.38;0.75;;;22.20;84.00;;;;;;6370546;22;20005;-78
2022/09/10 04:32:34;;;;;;;2.25;0.80;;;22.20;83.80;;;;;;6342597;22;20041;-79
2022/09/10 04:35:02;;;;;;;1.85;0.98;;;22.30;83.70;;;;;;6370427;22;19998;-79
2022/09/10 04:37:29;;;;;;;1.40;0.90;;;22.30;83.50;;;;;;6370295;22;20592;-79
2022/09/10 04:39:55;;;;;;;1.42;0.90;;;22.30;83.30;;;;;;6370177;22;20010;-79
2022/09/10 04:42:20;;;;;;;3.13;1.00;;;22.30;83.30;;;;;;6369850;22;20077;-79
2022/09/10 04:44:46;;;;;;;1.67;0.70;;;22.40;83.30;;;;;;6370399;22;19994;-79
2022/09/10 04:47:12;;;;;;;2.17;0.77;;;22.30;83.10;;;;;;6369595;22;20424;-80
2022/09/10 04:49:38;;;;;;;5.05;1.10;;;22.30;83.20;;;;;;6370176;22;20325;-80
2022/09/10 04:52:04;;;;;;;5.05;0.82;;;22.30;83.00;;;;;;6369413;22;20002;-80
2022/09/10 04:54:29;;;;;;;1.67;0.95;;;22.10;83.00;;;;;;6341810;22;20022;-80
2022/09/10 04:56:55;;;;;;;2.83;0.95;;;21.90;83.50;;;;;;6369300;22;19999;-78
2022/09/10 04:59:21;;;;;;;1.45;0.88;;;21.90;83.70;;;;;;6368215;22;20011;-82
2022/09/10 05:01:50;;;;;;;3.38;1.15;;;21.90;83.70;;;;;;6369785;22;20419;-82
2022/09/10 05:04:16;;;;;;;4.93;1.02;;;21.80;84.30;;;;;;6369219;22;19998;-82
2022/09/10 05:06:42;;;;;;;3.90;0.90;;;21.50;85.70;;;;;;6370239;22;20887;-83
2022/09/10 05:09:08;;;;;;;2.80;1.10;;;21.40;86.00;;;;;;6370009;22;19994;-82
2022/09/10 05:11:35;;;;;;;1.77;1.30;;;21.30;86.60;;;;;;6370302;22;20029;-82
2022/09/10 05:14:01;;;;;;;2.50;1.42;;;21.20;87.30;;;;;;6370621;22;20024;-81
2022/09/10 05:16:26;;;;;;;3.47;1.10;;;21.30;87.50;;;;;;6370337;22;20400;-82
2022/09/10 05:18:52;;;;;;;1.88;0.93;;;21.40;87.10;;;;;;6369946;22;20024;-81
2022/09/10 05:21:18;;;;;;;1.55;1.35;;;21.50;86.80;;;;;;6368073;22;20006;-81
2022/09/10 05:23:44;;;;;;;4.25;1.63;;;21.40;86.40;;;;;;6370638;22;20073;-81
2022/09/10 05:26:09;;;;;;;3.20;1.75;;;21.20;87.10;;;;;;6342091;22;20002;-82
2022/09/10 05:28:36;;;;;;;2.08;1.55;;;21.20;87.20;;;;;;6370180;22;19998;-82
2022/09/10 05:31:01;;;;;;;1.70;1.17;;;21.20;87.20;;;;;;6341656;22;20320;-83
2022/09/10 05:33:27;;;;;;;2.70;1.33;;;21.00;87.70;;;;;;6370160;22;19999;-83
2022/09/10 05:35:53;;;;;;;1.85;1.27;;;20.90;88.40;;;;;;6370382;22;20339;-83
2022/09/10 05:38:19;;;;;;;1.45;1.02;;;21.00;88.40;;;;;;6368303;22;20085;-82
2022/09/10 05:40:44;;;;;;;5.25;1.52;;;21.10;87.90;;;;;;6366309;22;20007;-79
2022/09/10 05:43:12;;;;;;;3.63;2.00;;;21.00;88.70;;;;;;6368119;22;20432;-82
2022/09/10 05:45:38;;;;;;;3.30;1.20;;;20.80;89.00;;;;;;6368444;22;19999;-81
2022/09/10 05:48:04;;;;;;;1.73;1.08;;;21.00;88.60;;;;;;6369277;22;20409;-77
2022/09/10 05:50:29;;;;;;;2.97;1.60;;;21.10;88.20;;;;;;6368349;22;20002;-78
2022/09/10 05:52:55;;;;;;;3.22;1.20;;;21.20;88.00;;;;;;6341560;22;20388;-78
2022/09/10 05:55:21;;;;;;;3.60;1.65;;;21.30;87.80;;;;;;6340612;22;20336;-77
2022/09/10 05:57:47;;;;;;;2.42;1.30;;;21.30;87.60;;;;;;6368869;22;20294;-77
2022/09/10 06:00:14;;;;;;;17.10;1.45;;;21.40;87.30;;;;;;6367690;22;20029;-77
2022/09/10 06:02:41;;;;;;;2.05;1.20;;;21.40;87.00;;;;;;6367389;22;20027;-78
2022/09/10 06:05:07;;;;;;;1.85;0.93;;;21.50;86.70;;;;;;6338996;22;20026;-81
2022/09/10 06:07:33;;;;;;;2.53;1.20;;;21.60;86.60;;;;;;6368626;22;20092;-82
2022/09/10 06:09:59;;;;;;;3.70;1.20;;;21.60;86.40;;;;;;6369882;22;19998;-82
2022/09/10 06:12:25;;;;;;;1.63;1.13;;;21.60;86.60;;;;;;6369812;22;20320;-82
2022/09/10 06:14:51;;;;;;;2.70;1.02;;;21.60;86.50;;;;;;6369474;22;20006;-81
2022/09/10 06:17:17;;;;;;;1.27;1.02;;;21.70;86.40;;;;;;6369976;22;19994;-82
2022/09/10 06:19:44;;;;;;;2.20;1.30;;;21.70;86.30;;;;;;6369715;22;20495;-82
2022/09/10 06:22:10;;;;;;;2.05;0.93;;;21.80;86.10;;;;;;6369662;22;20454;-81
2022/09/10 06:24:37;;;;;;;3.47;1.38;;;21.80;86.50;;;;;;6369840;22;20025;-82
2022/09/10 06:27:04;;;;;;;1.20;0.98;;;21.90;86.10;;;;;;6369308;22;20069;-82
2022/09/10 06:29:32;;;;;;;1.25;0.70;;;21.90;85.90;;;;;;6369228;22;20002;-82
2022/09/10 06:31:58;;;;;;;2.58;0.80;;;21.90;85.70;;;;;;6369508;22;20002;-81
2022/09/10 06:34:24;;;;;;;2.30;1.00;;;22.00;85.40;;;;;;6369565;22;20063;-82
2022/09/10 06:36:50;;;;;;;2.38;0.77;;;22.00;85.00;;;;;;6370130;22;20351;-82
2022/09/10 06:39:16;;;;;;;2.38;0.70;;;22.00;84.30;;;;;;6369630;22;20010;-82
2022/09/10 06:41:42;;;;;;;1.48;0.73;;;22.10;83.60;;;;;;6369902;22;20336;-83
2022/09/10 06:44:11;;;;;;;2.25;0.75;;;21.90;80.70;;;;;;6369252;22;20298;-83
2022/09/10 06:46:37;;;;;;;1.20;0.57;;;21.80;81.60;;;;;;6369335;22;20087;-82
2022/09/10 06:49:06;;;;;;;0.95;0.50;;;21.90;81.70;;;;;;6369218;22;19998;-81
2022/09/10 06:51:32;;;;;;;3.95;0.80;;;21.90;82.10;;;;;;6369256;22;19995;-82
2022/09/10 06:54:00;;;;;;;1.35;0.60;;;22.00;81.20;;;;;;6368828;22;20003;-82
2022/09/10 06:56:26;;;;;;;2.22;0.47;;;21.90;81.70;;;;;;6368417;22;19998;-81
2022/09/10 06:58:51;;;;;;;3.10;0.93;;;21.90;80.90;;;;;;6369449;22;20005;-81
2022/09/10 07:01:19;;;;;;;4.28;0.75;;;21.80;81.60;;;;;;6369037;22;20364;-81
2022/09/10 07:03:45;;;;;;;1.50;0.80;;;21.80;81.40;;;;;;6369405;22;19994;-81
2022/09/10 07:06:16;;;;;;;0.80;0.68;;;21.80;81.90;;;;;;6369610;22;20022;-80
2022/09/10 07:08:42;;;;;;;2.88;0.70;;;21.90;82.20;;;;;;6369494;22;20421;-81
2022/09/10 07:11:13;;;;;;;0.95;0.52;;;22.00;82.00;;;;;;6368858;22;20052;-81
2022/09/10 07:13:39;;;;;;;1.35;0.65;;;22.20;81.80;;;;;;6368658;22;20052;-81
2022/09/10 07:16:05;;;;;;;1.38;0.95;;;22.30;81.70;;;;;;6341969;22;20002;-81
2022/09/10 07:18:32;;;;;;;1.38;0.50;;;22.30;80.30;;;;;;6368535;22;20103;-81
2022/09/10 07:21:11;;;;;;;2.15;0.50;;;22.40;80.60;;;;;;6369165;22;20003;-81
2022/09/10 07:23:40;;;;;;;3.00;0.45;;;22.50;79.00;;;;;;6341351;22;19998;-81
2022/09/10 07:26:08;;;;;;;1.10;0.43;;;22.60;79.50;;;;;;6356847;22;20002;-79
2022/09/10 07:28:35;;;;;;;1.10;0.30;;;22.60;78.10;;;;;;6367731;22;20055;-78
2022/09/10 07:31:34;;;;;;;3.00;0.50;;;22.60;78.60;;;;;;6366631;22;20017;-79
2022/09/10 07:34:01;;;;;;;1.10;0.30;;;22.80;77.70;;;;;;6340100;22;20554;-79
2022/09/10 07:36:27;;;;;;;1.42;0.63;;;22.90;77.80;;;;;;6369626;22;20006;-79
2022/09/10 07:39:02;;;;;;;0.75;0.40;;;22.90;75.00;;;;;;6369455;22;20022;-79
2022/09/10 07:41:28;;;;;;;0.30;0.30;;;23.00;76.30;;;;;;6369914;22;19999;-79
2022/09/10 07:43:54;;;;;;;2.63;0.50;;;23.00;76.00;;;;;;6370622;22;20005;-79
2022/09/10 07:46:21;;;;;;;1.40;0.70;;;23.10;76.60;;;;;;6370636;22;20002;-78
2022/09/10 07:48:51;;;;;;;0.82;0.43;;;23.20;76.60;;;;;;6370977;22;20349;-78
2022/09/10 07:51:18;;;;;;;2.20;0.55;;;23.40;76.90;;;;;;6370665;22;20002;-78
2022/09/10 07:53:44;;;;;;;3.13;0.77;;;23.50;76.60;;;;;;6370596;22;20009;-79
2022/09/10 07:56:10;;;;;;;0.88;0.60;;;23.40;72.70;;;;;;6370018;22;19998;-79
2022/09/10 07:58:37;;;;;;;0.65;0.40;;;23.50;74.70;;;;;;6370337;22;20385;-78
2022/09/10 08:01:08;;;;;;;2.42;0.40;;;23.60;74.80;;;;;;6369673;22;20006;-80
2022/09/10 08:03:34;;;;;;;1.13;0.50;;;23.70;75.10;;;;;;6368229;22;20302;-79
2022/09/10 08:06:00;;;;;;;2.22;0.70;;;23.80;74.80;;;;;;6368022;22;19998;-79
2022/09/10 08:08:35;;;;;;;1.42;0.50;;;23.90;73.50;;;;;;6331167;22;20005;-79
2022/09/10 08:11:12;;;;;;;1.25;0.43;;;23.90;71.70;;;;;;6370282;22;20308;-80
2022/09/10 08:13:40;;;;;;;1.30;0.60;;;24.00;73.60;;;;;;6370208;22;19998;-79
2022/09/10 08:16:11;;;;;;;1.60;0.70;;;24.00;73.50;;;;;;6369808;22;20002;-79
2022/09/10 08:18:37;;;;;;;0.50;0.45;;;24.10;72.70;;;;;;6368908;22;20449;-79
2022/09/10 08:21:04;;;;;;;2.08;0.60;;;24.20;73.40;;;;;;6367658;22;20014;-79
2022/09/10 08:23:38;;;;;;;0.75;0.47;;;24.30;73.20;;;;;;6367567;22;19995;-80
2022/09/10 08:26:06;;;;;;;1.83;0.43;;;24.50;73.00;;;;;;6339382;22;20087;-80
2022/09/10 08:28:36;;;;;;;9.55;1.52;;;24.60;72.80;;;;;;6369920;22;20420;-84
2022/09/10 08:31:10;;;;;;;3.17;1.00;;;24.70;72.60;;;;;;6370558;22;20002;-81
2022/09/10 08:33:38;;;;;;;28.45;2.22;;;24.90;72.40;;;;;;6370366;22;20006;-85
2022/09/10 08:36:06;;;;;;;0.85;0.60;;;25.00;69.90;;;;;;6369712;22;20060;-83
2022/09/10 08:38:34;;;;;;;1.50;0.55;;;25.10;68.50;;;;;;6370378;22;20029;-84
2022/09/10 08:41:06;;;;;;;0.55;0.40;;;25.00;69.90;;;;;;6369920;22;19999;-83
2022/09/10 08:43:54;;;;;;;0.38;0.30;;;25.20;70.50;;;;;;6369700;22;20001;-84
2022/09/10 08:46:44;;;;;;;1.60;0.55;;;25.30;70.40;;;;;;6368416;22;19995;-85
2022/09/10 08:49:30;;;;;;;0.40;0.40;;;25.40;69.70;;;;;;6370289;22;20305;-85
2022/09/10 08:52:36;;;;;;;1.55;0.63;;;25.50;67.80;;;;;;6370166;22;20081;-85
2022/09/10 08:55:07;;;;;;;0.80;0.40;;;25.60;67.10;;;;;;6312655;22;20081;-86
2022/09/10 08:57:48;;;;;;;0.50;0.30;;;25.60;68.00;;;;;;6370039;22;20078;-85
2022/09/10 09:00:18;;;;;;;0.30;0.30;;;25.60;68.00;;;;;;6369737;22;20006;-84
2022/09/10 09:03:13;;;;;;;0.28;0.28;;;25.70;68.20;;;;;;6369985;22;20085;-84
2022/09/10 09:05:45;;;;;;;1.55;0.45;;;25.90;66.80;;;;;;6342077;22;20017;-84
2022/09/10 09:08:24;;;;;;;0.30;0.30;;;25.90;65.80;;;;;;6369110;22;19994;-84
2022/09/10 09:11:06;;;;;;;5.38;1.27;;;26.00;67.10;;;;;;6342135;22;20006;-85
2022/09/10 09:13:46;;;;;;;2.83;0.60;;;26.10;66.40;;;;;;6369242;22;20002;-84
2022/09/10 09:16:43;;;;;;;1.13;0.40;;;25.90;63.90;;;;;;6369844;22;19998;-84
2022/09/10 09:19:13;;;;;;;5.00;0.82;;;25.90;64.20;;;;;;6370200;22;20002;-84
2022/09/10 09:21:53;;;;;;;1.02;0.40;;;26.10;65.10;;;;;;6339539;22;20002;-82
2022/09/10 09:24:44;;;;;;;16.35;2.20;;;26.20;65.50;;;;;;6368477;22;20829;-82
2022/09/10 09:27:15;;;;;;;8.73;2.22;;;26.40;65.90;;;;;;6368857;22;19995;-83
2022/09/10 09:30:05;;;;;;;2.75;0.60;;;26.60;66.00;;;;;;6366606;22;19998;-78
2022/09/10 09:32:35;;;;;;;6.25;0.85;;;26.70;65.60;;;;;;6369131;22;20424;-85
2022/09/10 09:35:03;;;;;;;;;;;27.00;65.60;;;;;;6369271;22;20077;-85
2022/09/10 09:37:30;;;;;;;2.05;0.68;;;27.20;65.40;;;;;;6369065;22;19980;-77
2022/09/10 09:40:14;;;;;;;0.32;0.25;;;27.40;65.00;;;;;;6367668;22;20059;-77
2022/09/10 09:43:01;;;;;;;0.73;0.38;;;27.60;63.70;;;;;;6368895;22;20478;-77
2022/09/10 09:45:36;;;;;;;0.45;0.30;;;27.70;62.80;;;;;;6369103;22;19998;-77
2022/09/10 09:48:10;;;;;;;1.95;0.45;;;27.80;63.40;;;;;;6369061;22;20005;-77
2022/09/10 09:50:41;;;;;;;0.50;0.38;;;27.70;60.00;;;;;;6369348;22;20668;-77
2022/09/10 09:53:12;;;;;;;0.38;0.30;;;27.70;61.30;;;;;;6368719;22;20002;-76
2022/09/10 09:55:42;;;;;;;1.95;0.35;;;27.80;62.10;;;;;;6367792;22;20078;-79
2022/09/10 09:58:23;;;;;;;0.47;0.28;;;27.80;58.40;;;;;;6367733;22;19999;-77
2022/09/10 10:01:03;;;;;;;1.52;0.60;;;27.80;60.20;;;;;;6341300;22;20317;-77
2022/09/10 10:03:51;;;;;;;2.85;0.60;;;27.80;58.50;;;;;;6340180;22;20094;-87
2022/09/10 10:06:20;;;;;;;0.38;0.20;;;28.00;59.70;;;;;;6369454;22;20372;-86
2022/09/10 10:09:00;;;;;;;0.60;0.30;;;28.00;58.70;;;;;;6369653;22;19999;-85
2022/09/10 10:11:46;;;;;;;1.65;0.35;;;28.10;59.80;;;;;;6369825;22;20075;-84
2022/09/10 10:14:25;;;;;;;2.20;0.40;;;28.10;59.50;;;;;;6340854;22;20017;-85
2022/09/10 10:16:54;;;;;;;4.03;0.60;;;28.30;60.00;;;;;;6367566;22;20002;-81
2022/09/10 10:19:33;;;;;;;0.30;0.30;;;28.40;59.20;;;;;;6368137;22;20002;-81
2022/09/10 10:22:15;;;;;;;0.20;0.20;;;28.50;56.90;;;;;;6368115;22;20128;-80
2022/09/10 10:24:42;;;;;;;0.73;0.45;;;28.70;58.10;;;;;;6367368;22;20517;-83
2022/09/10 10:27:37;;;;;;;0.80;0.30;;;28.90;58.10;;;;;;6369216;22;20009;-81
2022/09/10 10:30:17;;;;;;;1.17;0.50;;;29.00;57.20;;;;;;6368386;22;19998;-81
2022/09/10 10:32:46;;;;;;;0.28;0.20;;;29.20;57.60;;;;;;6368854;22;19994;-81
2022/09/10 10:35:44;;;;;;;0.93;0.40;;;29.30;57.30;;;;;;6369148;22;20002;-80
2022/09/10 10:38:31;;;;;;;0.70;0.38;;;29.40;57.20;;;;;;6360605;22;20006;-80
2022/09/10 10:41:06;;;;;;;0.50;0.30;;;29.40;53.90;;;;;;6368558;22;20016;-80
2022/09/10 10:43:32;;;;;;;0.57;0.40;;;29.30;55.70;;;;;;6368856;22;20012;-80
2022/09/10 10:46:15;;;;;;;0.80;0.40;;;29.40;56.40;;;;;;6342283;22;19994;-80
2022/09/10 10:48:46;;;;;;;1.55;0.57;;;29.60;56.10;;;;;;6339771;22;20026;-81
2022/09/10 10:51:16;;;;;;;0.38;0.35;;;29.70;55.90;;;;;;6370103;22;20024;-75
2022/09/10 10:54:04;;;;;;;0.85;0.40;;;29.80;55.20;;;;;;6367121;22;20032;-75
2022/09/10 10:56:50;;;;;;;0.65;0.40;;;29.90;53.70;;;;;;6368857;22;20055;-79
2022/09/10 10:59:55;;;;;;;0.40;0.20;;;30.10;54.50;;;;;;6368535;22;20044;-75
2022/09/10 11:02:26;;;;;;;0.50;0.30;;;30.40;54.50;;;;;;6368280;22;20094;-75
2022/09/10 11:05:00;;;;;;;0.43;0.22;;;30.60;54.40;;;;;;6366680;22;19995;-76
2022/09/10 11:07:39;;;;;;;0.90;0.32;;;30.70;53.60;;;;;;6369830;22;19994;-76
2022/09/10 11:10:14;;;;;;;0.22;0.22;;;30.90;52.90;;;;;;6370981;22;20002;-78
2022/09/10 11:13:08;;;;;;;1.42;0.28;;;31.00;53.20;;;;;;6371975;22;19995;-81
2022/09/10 11:15:51;;;;;;;0.77;0.40;;;31.20;52.60;;;;;;6370041;22;20014;-81
2022/09/10 11:18:41;;;;;;;1.10;0.45;;;31.40;52.50;;;;;;6370442;22;20071;-81
2022/09/10 11:21:30;;;;;;;0.55;0.38;;;31.60;52.30;;;;;;6370734;22;20320;-78
2022/09/10 11:24:07;;;;;;;1.02;0.50;;;31.90;51.30;;;;;;6369220;22;19998;-80
2022/09/10 11:26:47;;;;;;;0.47;0.35;;;32.00;51.60;;;;;;6370914;22;20005;-81
2022/09/10 11:29:22;;;;;;;1.75;0.20;;;32.20;51.80;;;;;;6370068;22;20083;-78
2022/09/10 11:32:03;;;;;;;1.40;0.60;;;32.30;51.00;;;;;;6370954;22;20301;-80
2022/09/10 11:35:03;;;;;;;1.58;0.63;;;32.50;50.90;;;;;;6370908;22;20006;-80
2022/09/10 11:37:50;;;;;;;0.80;0.40;;;32.70;51.30;;;;;;6371085;22;19994;-80
2022/09/10 11:40:56;;;;;;;1.83;0.73;;;32.90;50.50;;;;;;6371397;22;20496;-81
2022/09/10 11:43:53;;;;;;;2.40;0.70;;;33.10;47.50;;;;;;6283938;22;20300;-78
2022/09/10 11:46:31;;;;;;;1.58;0.55;;;33.20;49.60;;;;;;6370550;22;20382;-82
2022/09/10 11:49:04;;;;;;;1.10;0.47;;;33.30;49.80;;;;;;6366402;22;20037;-83
2022/09/10 11:51:38;;;;;;;0.70;0.50;;;33.40;49.90;;;;;;6360114;22;20040;-83
2022/09/10 11:54:09;;;;;;;0.50;0.43;;;33.60;49.20;;;;;;6369014;22;20098;-83
2022/09/10 11:56:51;;;;;;;1.33;0.50;;;33.90;49.00;;;;;;6366604;22;20439;-83
2022/09/10 11:59:39;;;;;;;0.63;0.30;;;34.00;47.40;;;;;;6368138;22;20412;-82
2022/09/10 12:02:23;;;;;;;0.75;0.52;;;34.20;45.00;;;;;;6367451;22;19998;-83
2022/09/10 12:04:55;;;;;;;0.55;0.43;;;34.20;47.40;;;;;;6369602;22;20001;-83
2022/09/10 12:07:47;;;;;;;2.70;0.60;;;34.30;47.30;;;;;;6369853;22;20005;-83
2022/09/10 12:10:16;;;;;;;2.00;0.50;;;34.40;45.60;;;;;;6369711;22;20343;-83
2022/09/10 12:12:49;;;;;;;0.80;0.43;;;34.50;46.40;;;;;;6368735;22;19994;-82
2022/09/10 12:15:24;;;;;;;0.80;0.40;;;34.60;44.40;;;;;;6370337;22;20074;-83
2022/09/10 12:17:58;;;;;;;1.85;0.40;;;34.70;46.00;;;;;;6369291;22;19999;-83
2022/09/10 12:20:29;;;;;;;1.98;0.43;;;34.80;46.20;;;;;;6369038;22;20009;-83
2022/09/10 12:22:55;;;;;;;1.25;0.40;;;34.80;44.60;;;;;;6369863;22;19995;-83
2022/09/10 12:25:23;;;;;;;0.30;0.30;;;34.70;45.00;;;;;;6369369;22;20013;-82
2022/09/10 12:27:50;;;;;;;0.47;0.38;;;34.70;44.90;;;;;;6369136;22;19998;-82
2022/09/10 12:30:32;;;;;;;1.55;0.50;;;34.60;44.80;;;;;;6367921;22;20017;-79
2022/09/10 12:33:00;;;;;;;0.63;0.35;;;34.70;44.70;;;;;;6368421;22;20073;-81
2022/09/10 12:35:31;;;;;;;2.13;0.70;;;34.80;45.30;;;;;;6369021;22;20450;-79
2022/09/10 12:38:34;;;;;;;1.25;0.50;;;35.00;44.90;;;;;;6369251;22;20022;-80
2022/09/10 12:41:02;;;;;;;2.22;0.68;;;35.00;43.70;;;;;;6367990;22;20010;-80
2022/09/10 12:43:39;;;;;;;0.80;0.57;;;34.70;44.90;;;;;;6368875;22;19998;-80
2022/09/10 12:46:08;;;;;;;0.73;0.35;;;34.40;45.20;;;;;;6368990;22;20002;-79
2022/09/10 12:48:49;;;;;;;0.50;0.50;;;34.30;45.50;;;;;;6368117;22;20013;-80
2022/09/10 12:51:36;;;;;;;0.60;0.50;;;34.20;45.30;;;;;;6367952;22;20002;-81
2022/09/10 12:54:40;;;;;;;2.33;0.57;;;34.00;45.20;;;;;;6368361;22;20046;-82
2022/09/10 12:57:20;;;;;;;3.33;0.75;;;33.70;44.70;;;;;;6366862;22;20175;-80
2022/09/10 13:00:10;;;;;;;0.47;0.20;;;33.50;45.70;;;;;;6369291;22;20006;-81
2022/09/10 13:02:45;;;;;;;;;;;33.50;44.80;;;;;;6340832;22;20395;-81
2022/09/10 13:05:20;;;;;;;1.08;0.50;;;33.50;45.90;;;;;;6368098;22;20511;-80
2022/09/10 13:07:55;;;;;;;2.15;0.70;;;33.40;46.20;;;;;;6368768;22;20694;-81
2022/09/10 13:10:26;;;;;;;1.27;0.63;;;33.20;45.90;;;;;;6368843;22;20179;-81
2022/09/10 13:12:57;;;;;;;0.50;0.40;;;33.10;46.20;;;;;;6368988;22;20018;-81